createdAt,value
2023-08-15T00:01:21.165Z,23.20
2023-08-15T00:03:49.222Z,23.20
2023-08-15T00:06:16.274Z,23.10
2023-08-15T00:08:43.516Z,23.10
2023-08-15T00:11:10.560Z,23.00
2023-08-15T00:13:37.804Z,23.00
2023-08-15T00:16:05.154Z,22.90
2023-08-15T00:18:32.139Z,22.80
2023-08-15T00:20:59.106Z,22.70
2023-08-15T00:23:27.300Z,22.60
2023-08-15T00:25:54.232Z,22.50
2023-08-15T00:28:22.499Z,22.50
2023-08-15T00:30:51.299Z,22.30
2023-08-15T00:33:18.246Z,22.30
2023-08-15T00:35:45.508Z,22.30
2023-08-15T00:38:12.676Z,22.10
2023-08-15T00:40:40.802Z,22.10
2023-08-15T00:43:09.748Z,22.00
2023-08-15T00:45:42.563Z,22.10
2023-08-15T00:48:11.933Z,21.80
2023-08-15T00:50:44.366Z,22.10
2023-08-15T00:53:12.402Z,22.00
2023-08-15T00:55:40.124Z,21.50
2023-08-15T00:58:07.485Z,21.50
2023-08-15T01:00:34.958Z,21.70
2023-08-15T01:03:02.384Z,21.40
2023-08-15T01:05:30.701Z,21.30
2023-08-15T01:07:58.022Z,21.40
2023-08-15T01:10:25.998Z,21.20
2023-08-15T01:13:14.056Z,21.60
2023-08-15T01:15:51.465Z,21.10
2023-08-15T01:18:40.391Z,21.10
2023-08-15T01:21:08.962Z,21.10
2023-08-15T01:23:48.002Z,21.20
2023-08-15T01:26:15.012Z,21.00
2023-08-15T01:28:42.125Z,21.00
2023-08-15T01:31:36.124Z,21.60
2023-08-15T01:34:26.392Z,20.90
2023-08-15T01:37:07.637Z,20.90
2023-08-15T01:39:39.393Z,20.90
2023-08-15T01:42:07.816Z,20.90
2023-08-15T01:44:37.342Z,20.80
2023-08-15T01:47:04.698Z,20.80
2023-08-15T01:49:32.254Z,20.80
2023-08-15T01:52:00.279Z,20.80
2023-08-15T01:54:27.536Z,20.80
2023-08-15T01:56:54.702Z,20.80
2023-08-15T01:59:22.536Z,22.80
2023-08-15T02:01:49.514Z,20.70
2023-08-15T02:04:16.472Z,20.70
2023-08-15T02:06:43.501Z,20.70
2023-08-15T02:09:10.694Z,20.70
2023-08-15T02:11:37.856Z,20.70
2023-08-15T02:14:04.936Z,22.40
2023-08-15T02:16:35.025Z,20.70
2023-08-15T02:19:02.417Z,20.60
2023-08-15T02:21:29.957Z,20.60
2023-08-15T02:23:56.979Z,20.70
2023-08-15T02:26:24.804Z,20.60
2023-08-15T02:28:51.926Z,20.60
2023-08-15T02:31:19.703Z,20.60
2023-08-15T02:33:47.605Z,20.60
2023-08-15T02:36:14.662Z,20.50
2023-08-15T02:38:41.780Z,20.50
2023-08-15T02:41:08.769Z,20.50
2023-08-15T02:43:35.851Z,21.30
2023-08-15T02:46:02.894Z,20.40
2023-08-15T02:48:29.973Z,20.30
2023-08-15T02:50:57.191Z,20.30
2023-08-15T02:53:24.457Z,20.30
2023-08-15T02:55:52.494Z,20.20
2023-08-15T02:58:19.754Z,20.20
2023-08-15T03:00:47.338Z,20.20
2023-08-15T03:03:15.744Z,21.40
2023-08-15T03:05:43.111Z,20.10
2023-08-15T03:08:10.226Z,20.10
2023-08-15T03:10:40.799Z,20.00
2023-08-15T03:13:07.949Z,20.00
2023-08-15T03:15:37.246Z,20.00
2023-08-15T03:18:04.787Z,19.90
2023-08-15T03:20:31.803Z,19.90
2023-08-15T03:22:59.127Z,19.90
2023-08-15T03:25:26.169Z,19.80
2023-08-15T03:27:55.656Z,19.80
2023-08-15T03:30:22.861Z,19.70
2023-08-15T03:32:50.701Z,19.70
2023-08-15T03:35:21.521Z,19.70
2023-08-15T03:37:49.788Z,19.70
2023-08-15T03:40:16.913Z,19.60
2023-08-15T03:42:44.584Z,19.50
2023-08-15T03:45:11.807Z,19.50
2023-08-15T03:47:39.038Z,19.50
2023-08-15T03:50:06.652Z,19.40
2023-08-15T03:52:35.660Z,19.30
2023-08-15T03:55:03.652Z,19.30
2023-08-15T03:57:31.684Z,19.20
2023-08-15T03:59:58.896Z,19.20
2023-08-15T04:02:26.214Z,19.20
2023-08-15T04:04:53.233Z,19.10
2023-08-15T04:07:20.450Z,19.10
2023-08-15T04:09:47.793Z,19.10
2023-08-15T04:12:14.977Z,19.00
2023-08-15T04:14:42.030Z,19.00
2023-08-15T04:17:08.967Z,18.90
2023-08-15T04:19:36.106Z,18.90
2023-08-15T04:22:03.160Z,18.90
2023-08-15T04:24:30.242Z,18.90
2023-08-15T04:26:57.266Z,18.90
2023-08-15T04:29:24.382Z,18.80
2023-08-15T04:31:51.443Z,18.80
2023-08-15T04:34:18.460Z,18.80
2023-08-15T04:36:47.676Z,19.10
2023-08-15T04:39:16.011Z,18.70
2023-08-15T04:41:43.376Z,18.70
2023-08-15T04:44:14.081Z,19.40
2023-08-15T04:46:41.221Z,18.70
2023-08-15T04:49:08.514Z,18.70
2023-08-15T04:51:35.639Z,18.70
2023-08-15T04:54:02.780Z,18.60
2023-08-15T04:56:30.313Z,18.60
2023-08-15T04:58:57.806Z,18.40
2023-08-15T05:01:25.747Z,18.60
2023-08-15T05:03:52.915Z,18.60
2023-08-15T05:06:20.091Z,18.70
2023-08-15T05:08:47.886Z,19.80
2023-08-15T05:11:15.819Z,18.60
2023-08-15T05:13:42.952Z,18.70
2023-08-15T05:16:10.219Z,19.00
2023-08-15T05:18:37.335Z,18.80
2023-08-15T05:21:05.039Z,18.80
2023-08-15T05:23:32.038Z,18.80
2023-08-15T05:25:59.186Z,18.90
2023-08-15T05:28:26.446Z,19.80
2023-08-15T05:30:56.261Z,18.90
2023-08-15T05:33:23.350Z,18.90
2023-08-15T05:35:50.461Z,19.70
2023-08-15T05:38:18.086Z,20.20
2023-08-15T05:40:45.637Z,18.80
2023-08-15T05:43:12.854Z,19.10
2023-08-15T05:45:41.388Z,19.70
2023-08-15T05:48:10.298Z,19.40
2023-08-15T05:50:39.408Z,19.70
2023-08-15T05:53:06.493Z,19.30
2023-08-15T05:55:33.567Z,19.40
2023-08-15T05:58:00.534Z,19.40
2023-08-15T06:00:27.714Z,19.90
2023-08-15T06:02:55.963Z,19.60
2023-08-15T06:05:23.355Z,18.20
2023-08-15T06:07:50.349Z,19.90
2023-08-15T06:10:17.332Z,20.00
2023-08-15T06:12:44.389Z,20.10
2023-08-15T06:15:11.496Z,22.10
2023-08-15T06:17:38.507Z,20.30
2023-08-15T06:20:06.690Z,20.60
2023-08-15T06:22:33.644Z,20.80
2023-08-15T06:25:00.849Z,21.00
2023-08-15T06:27:27.847Z,21.10
2023-08-15T06:29:55.252Z,21.30
2023-08-15T06:32:33.828Z,21.40
2023-08-15T06:35:06.602Z,21.60
2023-08-15T06:37:34.138Z,21.70
2023-08-15T06:40:01.216Z,21.80
2023-08-15T06:42:28.278Z,22.00
2023-08-15T06:45:12.836Z,22.00
2023-08-15T06:47:40.825Z,22.20
2023-08-15T06:50:09.708Z,22.30
2023-08-15T06:52:38.560Z,22.40
2023-08-15T06:55:08.136Z,22.50
2023-08-15T06:57:36.408Z,22.70
2023-08-15T07:00:07.932Z,22.80
2023-08-15T07:02:35.227Z,23.00
2023-08-15T07:05:02.400Z,23.10
2023-08-15T07:07:30.751Z,23.20
2023-08-15T07:09:58.594Z,23.70
2023-08-15T07:12:26.052Z,23.50
2023-08-15T07:14:53.205Z,23.70
2023-08-15T07:17:20.288Z,23.80
2023-08-15T07:19:48.129Z,24.00
2023-08-15T07:22:15.246Z,24.10
2023-08-15T07:24:42.290Z,24.30
2023-08-15T07:27:09.398Z,24.40
2023-08-15T07:29:36.393Z,24.50
2023-08-15T07:32:03.657Z,24.60
2023-08-15T07:34:31.334Z,24.80
2023-08-15T07:36:58.378Z,25.00
2023-08-15T07:39:25.338Z,25.20
2023-08-15T07:41:52.340Z,25.40
2023-08-15T07:44:19.433Z,25.50
2023-08-15T07:46:46.910Z,25.70
2023-08-15T07:49:14.320Z,25.80
2023-08-15T07:51:41.530Z,25.70
2023-08-15T07:54:08.827Z,25.90
2023-08-15T07:56:35.966Z,25.90
2023-08-15T07:59:04.430Z,25.90
2023-08-15T08:01:31.540Z,25.90
2023-08-15T08:03:58.543Z,25.90
2023-08-15T08:06:39.585Z,25.90
2023-08-15T08:09:09.765Z,25.90
2023-08-15T08:11:37.098Z,25.90
2023-08-15T08:14:04.889Z,25.90
2023-08-15T08:16:32.543Z,25.90
2023-08-15T08:19:00.018Z,26.00
2023-08-15T08:21:27.024Z,26.00
2023-08-15T08:23:53.982Z,26.10
2023-08-15T08:26:21.044Z,26.20
2023-08-15T08:28:48.139Z,26.30
2023-08-15T08:31:15.255Z,26.40
2023-08-15T08:33:42.266Z,26.50
2023-08-15T08:36:09.307Z,26.60
2023-08-15T08:38:37.962Z,26.70
2023-08-15T08:41:05.057Z,26.70
2023-08-15T08:43:34.902Z,26.80
2023-08-15T08:46:05.226Z,26.90
2023-08-15T08:48:34.962Z,26.90
2023-08-15T08:51:03.697Z,26.90
2023-08-15T08:53:30.863Z,26.90
2023-08-15T08:55:58.291Z,26.80
2023-08-15T08:58:30.592Z,26.80
2023-08-15T09:01:03.151Z,26.70
2023-08-15T09:03:31.039Z,26.70
2023-08-15T09:05:59.106Z,26.70
2023-08-15T09:08:26.243Z,26.70
2023-08-15T09:10:53.393Z,26.70
2023-08-15T09:13:26.974Z,26.70
2023-08-15T09:15:59.501Z,26.70
2023-08-15T09:18:34.438Z,26.70
2023-08-15T09:21:05.372Z,26.80
2023-08-15T09:23:35.423Z,26.90
2023-08-15T09:26:16.145Z,27.00
2023-08-15T09:28:45.832Z,27.10
2023-08-15T09:31:13.748Z,27.20
2023-08-15T09:33:42.768Z,27.40
2023-08-15T09:36:10.850Z,27.50
2023-08-15T09:38:39.652Z,27.70
2023-08-15T09:41:11.468Z,28.00
2023-08-15T09:43:51.510Z,28.30
2023-08-15T09:46:20.533Z,28.70
2023-08-15T09:48:49.424Z,29.20
2023-08-15T09:51:19.001Z,29.50
2023-08-15T09:53:48.233Z,29.80
2023-08-15T09:56:16.831Z,30.00
2023-08-15T09:58:43.957Z,30.20
2023-08-15T10:01:15.784Z,30.50
2023-08-15T10:03:45.014Z,30.60
2023-08-15T10:06:14.763Z,30.90
2023-08-15T10:08:44.630Z,31.00
2023-08-15T10:11:12.702Z,31.20
2023-08-15T10:13:40.658Z,31.20
2023-08-15T10:16:13.422Z,31.30
2023-08-15T10:18:54.903Z,31.40
2023-08-15T10:21:22.055Z,31.40
2023-08-15T10:23:49.033Z,31.30
2023-08-15T10:26:16.260Z,31.30
2023-08-15T10:28:47.185Z,31.20
2023-08-15T10:31:14.816Z,31.20
2023-08-15T10:33:43.208Z,31.20
2023-08-15T10:36:10.847Z,31.20
2023-08-15T10:38:45.337Z,31.20
2023-08-15T10:41:20.515Z,31.30
2023-08-15T10:43:56.794Z,31.20
2023-08-15T10:46:29.610Z,31.10
2023-08-15T10:49:11.562Z,31.10
2023-08-15T10:51:41.656Z,31.10
2023-08-15T10:54:12.940Z,31.10
2023-08-15T10:56:42.182Z,30.90
2023-08-15T10:59:15.660Z,31.30
2023-08-15T11:01:46.520Z,31.40
2023-08-15T11:04:18.998Z,31.60
2023-08-15T11:06:53.538Z,30.70
2023-08-15T11:09:31.923Z,32.00
2023-08-15T11:12:10.136Z,32.20
2023-08-15T11:14:37.264Z,32.30
2023-08-15T11:17:04.352Z,32.50
2023-08-15T11:19:34.427Z,32.70
2023-08-15T11:22:01.949Z,32.90
2023-08-15T11:24:32.473Z,33.00
2023-08-15T11:27:01.753Z,33.20
2023-08-15T11:29:28.962Z,33.30
2023-08-15T11:31:59.938Z,33.30
2023-08-15T11:34:27.121Z,33.40
2023-08-15T11:36:54.128Z,33.50
2023-08-15T11:39:21.213Z,33.50
2023-08-15T11:41:52.569Z,33.50
2023-08-15T11:44:22.878Z,33.60
2023-08-15T11:46:54.784Z,33.70
2023-08-15T11:49:24.418Z,33.90
2023-08-15T11:51:52.246Z,34.10
2023-08-15T11:54:19.524Z,34.30
2023-08-15T11:56:54.597Z,34.50
2023-08-15T11:59:23.780Z,34.70
2023-08-15T12:01:51.014Z,34.80
2023-08-15T12:04:19.205Z,35.00
2023-08-15T12:06:46.756Z,35.20
2023-08-15T12:09:14.238Z,35.50
2023-08-15T12:11:41.585Z,35.60
2023-08-15T12:14:23.192Z,35.80
2023-08-15T12:16:50.438Z,35.90
2023-08-15T12:19:21.816Z,36.00
2023-08-15T12:21:51.374Z,36.30
2023-08-15T12:24:18.552Z,36.60
2023-08-15T12:26:45.590Z,36.80
2023-08-15T12:29:13.192Z,37.00
2023-08-15T12:31:43.122Z,37.20
2023-08-15T12:34:10.153Z,37.20
2023-08-15T12:36:37.189Z,37.10
2023-08-15T12:39:04.498Z,36.90
2023-08-15T12:41:31.459Z,36.70
2023-08-15T12:43:59.349Z,36.40
2023-08-15T12:46:26.351Z,36.10
2023-08-15T12:48:53.520Z,35.90
2023-08-15T12:51:21.214Z,35.70
2023-08-15T12:53:48.199Z,35.60
2023-08-15T12:56:15.392Z,35.60
2023-08-15T12:58:42.475Z,35.60
2023-08-15T13:01:10.843Z,35.70
2023-08-15T13:03:38.176Z,35.80
2023-08-15T13:06:05.383Z,35.90
2023-08-15T13:08:32.580Z,36.10
2023-08-15T13:10:59.628Z,36.40
2023-08-15T13:13:26.799Z,36.70
2023-08-15T13:15:53.975Z,37.00
2023-08-15T13:18:21.072Z,37.10
2023-08-15T13:20:48.377Z,37.00
2023-08-15T13:23:15.841Z,36.90
2023-08-15T13:25:43.255Z,36.70
2023-08-15T13:28:10.476Z,36.50
2023-08-15T13:30:37.518Z,35.50
2023-08-15T13:33:04.981Z,36.10
2023-08-15T13:35:32.055Z,35.90
2023-08-15T13:37:59.613Z,35.70
2023-08-15T13:40:26.828Z,35.50
2023-08-15T13:42:53.924Z,35.30
2023-08-15T13:45:20.901Z,35.10
2023-08-15T13:47:48.117Z,35.00
2023-08-15T13:50:15.081Z,34.90
2023-08-15T13:52:42.134Z,34.90
2023-08-15T13:55:09.879Z,34.90
2023-08-15T13:57:36.864Z,34.80
2023-08-15T14:00:04.422Z,34.70
2023-08-15T14:02:35.378Z,34.60
2023-08-15T14:05:07.915Z,34.60
2023-08-15T14:07:35.370Z,34.60
2023-08-15T14:10:02.610Z,34.60
2023-08-15T14:12:29.637Z,34.60
2023-08-15T14:14:57.092Z,34.70
2023-08-15T14:17:24.192Z,35.00
2023-08-15T14:19:51.174Z,35.30
2023-08-15T14:22:18.411Z,35.50
2023-08-15T14:24:49.788Z,35.60
2023-08-15T14:27:18.311Z,35.60
2023-08-15T14:29:48.910Z,35.60
2023-08-15T14:32:15.925Z,35.50
2023-08-15T14:34:43.172Z,35.50
2023-08-15T14:37:13.040Z,35.50
2023-08-15T14:39:40.032Z,35.50
2023-08-15T14:42:07.012Z,35.60
2023-08-15T14:44:35.527Z,35.70
2023-08-15T14:47:02.677Z,35.90
2023-08-15T14:49:29.609Z,35.90
2023-08-15T14:51:56.720Z,35.80
2023-08-15T14:54:23.749Z,35.70
2023-08-15T14:56:51.097Z,35.50
2023-08-15T14:59:18.675Z,35.20
2023-08-15T15:01:45.925Z,34.90
2023-08-15T15:04:13.288Z,34.60
2023-08-15T15:06:40.256Z,34.20
2023-08-15T15:09:07.322Z,34.00
2023-08-15T15:11:34.433Z,33.70
2023-08-15T15:14:01.986Z,33.50
2023-08-15T15:16:29.104Z,33.30
2023-08-15T15:18:56.456Z,33.20
2023-08-15T15:21:23.593Z,33.10
2023-08-15T15:23:50.503Z,33.00
2023-08-15T15:26:17.591Z,32.90
2023-08-15T15:28:44.587Z,32.70
2023-08-15T15:31:11.691Z,32.60
2023-08-15T15:33:38.762Z,32.60
2023-08-15T15:36:05.834Z,32.40
2023-08-15T15:38:32.790Z,32.50
2023-08-15T15:40:59.925Z,32.50
2023-08-15T15:43:27.058Z,32.60
2023-08-15T15:45:54.389Z,32.60
2023-08-15T15:48:21.359Z,32.60
2023-08-15T15:50:48.434Z,32.60
2023-08-15T15:53:15.379Z,32.40
2023-08-15T15:55:42.825Z,32.30
2023-08-15T15:58:09.806Z,32.30
2023-08-15T16:00:37.058Z,32.20
2023-08-15T16:03:04.727Z,32.30
2023-08-15T16:05:31.829Z,32.50
2023-08-15T16:07:58.989Z,32.60
2023-08-15T16:10:26.106Z,32.70
2023-08-15T16:13:24.155Z,32.90
2023-08-15T16:15:51.707Z,32.80
2023-08-15T16:18:18.701Z,32.60
2023-08-15T16:20:45.737Z,32.30
2023-08-15T16:23:14.976Z,32.00
2023-08-15T16:25:43.461Z,31.60
2023-08-15T16:28:10.778Z,31.30
2023-08-15T16:30:40.566Z,31.00
2023-08-15T16:33:07.700Z,28.80
2023-08-15T16:35:34.720Z,30.30
2023-08-15T16:38:01.890Z,30.10
2023-08-15T16:40:29.295Z,29.80
2023-08-15T16:43:18.616Z,29.50
2023-08-15T16:45:46.884Z,29.40
2023-08-15T16:48:14.584Z,29.30
2023-08-15T16:50:41.868Z,29.20
2023-08-15T16:53:09.264Z,29.00
2023-08-15T16:55:36.510Z,28.90
2023-08-15T16:58:03.595Z,28.90
2023-08-15T17:00:30.683Z,28.90
2023-08-15T17:02:58.390Z,29.00
2023-08-15T17:05:26.304Z,29.10
2023-08-15T17:07:53.344Z,29.20
2023-08-15T17:10:20.719Z,29.30
2023-08-15T17:12:48.611Z,29.40
2023-08-15T17:15:16.628Z,29.40
2023-08-15T17:17:44.345Z,29.40
2023-08-15T17:20:12.677Z,29.40
2023-08-15T17:22:39.918Z,29.20
2023-08-15T17:25:07.817Z,29.10
2023-08-15T17:27:36.041Z,28.90
2023-08-15T17:30:05.331Z,28.70
2023-08-15T17:32:32.600Z,28.50
2023-08-15T17:34:59.613Z,28.30
2023-08-15T17:37:26.732Z,28.10
2023-08-15T17:39:53.941Z,27.90
2023-08-15T17:42:21.196Z,27.70
2023-08-15T17:44:48.402Z,27.60
2023-08-15T17:47:15.422Z,27.50
2023-08-15T17:49:44.867Z,27.40
2023-08-15T17:52:11.826Z,27.30
2023-08-15T17:54:38.858Z,27.20
2023-08-15T17:57:06.265Z,27.10
2023-08-15T17:59:33.354Z,27.00
2023-08-15T18:02:01.485Z,26.80
2023-08-15T18:04:28.689Z,26.70
2023-08-15T18:06:55.974Z,26.70
2023-08-15T18:09:26.032Z,26.60
2023-08-15T18:11:53.274Z,26.70
2023-08-15T18:14:21.042Z,26.90
2023-08-15T18:16:50.521Z,26.80
2023-08-15T18:19:19.483Z,26.80
2023-08-15T18:21:46.791Z,26.80
2023-08-15T18:24:14.284Z,26.90
2023-08-15T18:26:41.325Z,27.00
2023-08-15T18:29:08.497Z,26.90
2023-08-15T18:31:35.703Z,26.70
2023-08-15T18:34:04.468Z,26.90
2023-08-15T18:36:31.863Z,26.80
2023-08-15T18:38:58.813Z,26.80
2023-08-15T18:41:25.854Z,26.70
2023-08-15T18:43:52.909Z,26.60
2023-08-15T18:46:20.105Z,26.60
2023-08-15T18:48:47.840Z,26.50
2023-08-15T18:51:15.118Z,26.30
2023-08-15T18:53:42.490Z,26.20
2023-08-15T18:56:10.279Z,26.00
2023-08-15T18:58:37.261Z,25.80
2023-08-15T19:01:05.826Z,25.60
2023-08-15T19:03:32.928Z,25.40
2023-08-15T19:06:00.202Z,26.30
2023-08-15T19:08:27.313Z,25.10
2023-08-15T19:10:54.288Z,24.80
2023-08-15T19:13:22.814Z,24.70
2023-08-15T19:15:50.124Z,24.50
2023-08-15T19:18:17.800Z,24.40
2023-08-15T19:20:45.130Z,24.30
2023-08-15T19:23:13.001Z,24.10
2023-08-15T19:25:40.153Z,24.00
2023-08-15T19:28:07.308Z,23.90
2023-08-15T19:30:34.489Z,23.90
2023-08-15T19:33:01.627Z,23.80
2023-08-15T19:35:28.699Z,23.70
2023-08-15T19:37:55.700Z,23.60
2023-08-15T19:40:22.755Z,23.60
2023-08-15T19:42:49.794Z,23.50
2023-08-15T19:45:17.509Z,23.50
2023-08-15T19:47:45.632Z,23.50
2023-08-15T19:50:12.861Z,23.40
2023-08-15T19:52:40.414Z,23.50
2023-08-15T19:55:09.868Z,23.30
2023-08-15T19:57:36.954Z,23.30
2023-08-15T20:00:06.714Z,23.20
2023-08-15T20:02:34.373Z,23.10
2023-08-15T20:05:01.462Z,23.10
2023-08-15T20:07:28.874Z,23.00
2023-08-15T20:10:09.601Z,23.00
2023-08-15T20:12:38.729Z,23.00
2023-08-15T20:15:06.662Z,22.90
2023-08-15T20:17:34.027Z,22.90
2023-08-15T20:20:01.374Z,22.80
2023-08-15T20:22:30.538Z,22.80
2023-08-15T20:24:57.833Z,22.80
2023-08-15T20:27:25.138Z,22.70
2023-08-15T20:29:57.499Z,22.70
2023-08-15T20:32:25.729Z,22.70
2023-08-15T20:34:53.441Z,22.70
2023-08-15T20:37:20.994Z,22.70
2023-08-15T20:39:48.438Z,22.70
2023-08-15T20:42:15.666Z,22.60
2023-08-15T20:44:42.738Z,22.60
2023-08-15T20:47:09.827Z,23.30
2023-08-15T20:49:37.153Z,22.60
2023-08-15T20:52:05.131Z,22.50
2023-08-15T20:54:33.090Z,22.50
2023-08-15T20:57:00.470Z,22.40
2023-08-15T20:59:27.890Z,22.40
2023-08-15T21:01:55.095Z,22.40
2023-08-15T21:04:22.630Z,22.40
2023-08-15T21:06:52.374Z,22.30
2023-08-15T21:09:20.386Z,22.30
2023-08-15T21:11:48.071Z,22.30
2023-08-15T21:14:15.812Z,22.30
2023-08-15T21:16:43.499Z,22.20
2023-08-15T21:19:10.784Z,22.20
2023-08-15T21:21:38.053Z,22.20
2023-08-15T21:24:06.002Z,22.20
2023-08-15T21:26:33.126Z,22.20
2023-08-15T21:29:00.475Z,22.10
2023-08-15T21:31:29.733Z,22.10
2023-08-15T21:33:56.843Z,22.10
2023-08-15T21:36:24.247Z,22.10
2023-08-15T21:38:51.511Z,22.10
2023-08-15T21:41:18.686Z,22.20
2023-08-15T21:43:45.839Z,22.20
2023-08-15T21:46:13.059Z,22.20
2023-08-15T21:48:40.257Z,22.20
2023-08-15T21:51:07.499Z,22.30
2023-08-15T21:53:34.957Z,22.20
2023-08-15T21:56:02.073Z,22.20
2023-08-15T21:58:29.082Z,22.20
2023-08-15T22:00:57.429Z,22.20
2023-08-15T22:03:24.689Z,22.20
2023-08-15T22:05:52.072Z,22.20
2023-08-15T22:08:19.287Z,22.10
2023-08-15T22:10:47.892Z,22.20
2023-08-15T22:13:15.667Z,22.20
2023-08-15T22:15:44.914Z,22.10
2023-08-15T22:18:20.293Z,22.20
2023-08-15T22:20:49.868Z,22.10
2023-08-15T22:23:16.989Z,22.20
2023-08-15T22:25:48.593Z,22.30
2023-08-15T22:28:16.586Z,22.10
2023-08-15T22:30:43.892Z,22.10
2023-08-15T22:33:11.106Z,22.20
2023-08-15T22:35:43.642Z,22.10
2023-08-15T22:38:10.929Z,22.10
2023-08-15T22:40:38.248Z,22.10
2023-08-15T22:43:07.704Z,22.00
2023-08-15T22:45:34.948Z,22.00
2023-08-15T22:48:02.018Z,22.00
2023-08-15T22:50:29.235Z,22.10
2023-08-15T22:52:57.182Z,21.90
2023-08-15T22:55:24.276Z,22.00
2023-08-15T22:57:51.448Z,21.90
2023-08-15T23:00:18.906Z,22.00
2023-08-15T23:02:47.680Z,21.90
2023-08-15T23:05:14.903Z,21.90
2023-08-15T23:07:42.718Z,21.90
2023-08-15T23:10:10.479Z,21.90
2023-08-15T23:12:37.615Z,21.80
2023-08-15T23:15:06.181Z,21.90
2023-08-15T23:17:33.197Z,21.90
2023-08-15T23:20:00.409Z,21.80
2023-08-15T23:22:27.538Z,21.80
2023-08-15T23:24:54.672Z,21.80
2023-08-15T23:27:22.154Z,21.80
2023-08-15T23:29:49.678Z,21.70
2023-08-15T23:32:16.690Z,21.80
2023-08-15T23:34:43.861Z,21.70
2023-08-15T23:37:10.817Z,21.70
2023-08-15T23:39:37.843Z,21.70
2023-08-15T23:42:04.999Z,21.70
2023-08-15T23:44:31.950Z,21.70
2023-08-15T23:46:59.041Z,21.70
2023-08-15T23:49:26.150Z,21.60
2023-08-15T23:51:53.089Z,21.60
2023-08-15T23:54:20.285Z,21.60
2023-08-15T23:56:47.624Z,21.60
2023-08-15T23:59:14.773Z,21.60
